createdAt,value
2018-02-05T00:00:24.202Z,94.76
2018-02-05T00:01:24.184Z,94.92
2018-02-05T00:02:24.187Z,94.56
2018-02-05T00:03:24.171Z,94.47
2018-02-05T00:04:24.177Z,94.38
2018-02-05T00:05:24.195Z,94.38
2018-02-05T00:06:24.211Z,94.25
2018-02-05T00:07:24.206Z,94.61
2018-02-05T00:08:24.200Z,94.25
2018-02-05T00:09:24.227Z,94.63
2018-02-05T00:10:24.199Z,94.4
2018-02-05T00:11:24.202Z,94.47
2018-02-05T00:12:24.194Z,94.25
2018-02-05T00:13:24.192Z,94.3
2018-02-05T00:14:24.167Z,94.25
2018-02-05T00:15:24.200Z,93.88
2018-02-05T00:16:24.239Z,94.17
2018-02-05T00:17:24.219Z,94.1
2018-02-05T00:18:24.205Z,94
2018-02-05T00:19:24.210Z,94.18
2018-02-05T00:20:24.219Z,94.14
2018-02-05T00:21:24.215Z,94.33
2018-02-05T00:22:24.194Z,94.15
2018-02-05T00:23:24.195Z,94.12
2018-02-05T00:24:24.205Z,94.1
2018-02-05T00:25:24.198Z,94.07
2018-02-05T00:26:24.467Z,93.85
2018-02-05T00:27:24.212Z,93.99
2018-02-05T00:28:24.201Z,94.13
2018-02-05T00:29:24.123Z,94.12
2018-02-05T00:30:24.146Z,93.95
2018-02-05T00:31:24.161Z,93.83
2018-02-05T00:32:24.181Z,93.92
2018-02-05T00:33:24.099Z,93.92
2018-02-05T00:34:24.171Z,93.71
2018-02-05T00:35:24.179Z,93.41
2018-02-05T00:36:24.128Z,93.47
2018-02-05T00:37:24.163Z,93.46
2018-02-05T00:38:24.133Z,93.41
2018-02-05T00:39:24.183Z,93.48
2018-02-05T00:40:24.120Z,93.69
2018-02-05T00:41:24.138Z,93.68
2018-02-05T00:42:24.122Z,93.74
2018-02-05T00:43:24.221Z,93.56
2018-02-05T00:44:24.127Z,93.59
2018-02-05T00:45:24.121Z,93.7
2018-02-05T00:46:24.126Z,93.58
2018-02-05T00:47:24.165Z,93.33
2018-02-05T00:48:24.104Z,93.41
2018-02-05T00:49:24.127Z,93.6
2018-02-05T00:50:24.123Z,93.58
2018-02-05T00:51:24.129Z,93.72
2018-02-05T00:52:24.148Z,93.88
2018-02-05T00:53:24.105Z,94.09
2018-02-05T00:54:24.126Z,93.82
2018-02-05T00:55:24.124Z,93.78
2018-02-05T00:56:24.117Z,93.71
2018-02-05T00:57:24.141Z,93.64
2018-02-05T00:58:24.120Z,93.6
2018-02-05T00:59:24.153Z,93.76
2018-02-05T01:00:24.134Z,93.82
2018-02-05T01:01:24.061Z,93.56
2018-02-05T01:02:24.048Z,93.55
2018-02-05T01:03:24.063Z,93.63
2018-02-05T01:04:24.048Z,93.54
2018-02-05T01:05:24.066Z,93.46
2018-02-05T01:06:24.052Z,93.56
2018-02-05T01:07:24.057Z,93.89
2018-02-05T01:08:24.046Z,93.46
2018-02-05T01:09:24.082Z,92.94
2018-02-05T01:10:24.037Z,93.01
2018-02-05T01:11:24.053Z,93.34
2018-02-05T01:12:24.035Z,91.83
2018-02-05T01:13:24.039Z,92.16
2018-02-05T01:14:24.173Z,91.65
2018-02-05T01:15:24.047Z,91.67
2018-02-05T01:16:24.053Z,91.93
2018-02-05T01:17:24.052Z,91.82
2018-02-05T01:18:24.069Z,91.7
2018-02-05T01:19:24.071Z,91.74
2018-02-05T01:20:24.089Z,91.93
2018-02-05T01:21:24.036Z,91.91
2018-02-05T01:22:24.032Z,91.69
2018-02-05T01:23:24.052Z,91.59
2018-02-05T01:24:24.036Z,91.27
2018-02-05T01:25:24.059Z,91.34
2018-02-05T01:26:24.028Z,91.41
2018-02-05T01:27:24.068Z,91.11
2018-02-05T01:28:24.053Z,91.33
2018-02-05T01:29:24.038Z,91.26
2018-02-05T01:30:24.055Z,91.29
2018-02-05T01:31:24.042Z,91.49
2018-02-05T01:32:23.940Z,91.39
2018-02-05T01:35:23.929Z,90.73
2018-02-05T01:36:23.935Z,90.89
2018-02-05T01:37:23.907Z,90.74
2018-02-05T01:38:23.912Z,90.87
2018-02-05T01:39:24.025Z,90.77
2018-02-05T01:40:23.920Z,90.57
2018-02-05T01:41:23.940Z,90.34
2018-02-05T01:42:23.914Z,90.46
2018-02-05T01:43:23.921Z,90.54
2018-02-05T01:44:23.937Z,90.47
2018-02-05T01:45:23.894Z,90.36
2018-02-05T01:46:23.898Z,90.4
2018-02-05T01:47:23.908Z,90.52
2018-02-05T01:48:23.932Z,90.42
2018-02-05T01:49:23.910Z,90.33
2018-02-05T01:50:23.927Z,90.49
2018-02-05T01:51:23.987Z,90.01
2018-02-05T01:52:23.932Z,89.77
2018-02-05T01:53:23.902Z,89.84
2018-02-05T01:54:23.895Z,90.15
2018-02-05T01:55:24.003Z,90.03
2018-02-05T01:56:23.920Z,89.37
2018-02-05T01:57:23.917Z,89.15
2018-02-05T01:58:23.920Z,89.11
2018-02-05T01:59:23.911Z,89.08
2018-02-05T02:00:23.910Z,89.34
2018-02-05T02:01:23.924Z,89.1
2018-02-05T02:02:23.964Z,89.24
2018-02-05T02:03:23.941Z,88.95
2018-02-05T02:04:23.942Z,89.17
2018-02-05T02:05:23.969Z,88.95
2018-02-05T02:06:23.954Z,89.08
2018-02-05T02:07:23.982Z,88.86
2018-02-05T02:08:24.019Z,89.08
2018-02-05T02:09:24.025Z,89.09
2018-02-05T02:10:23.943Z,89.19
2018-02-05T02:11:23.950Z,88.91
2018-02-05T02:12:23.982Z,89.14
2018-02-05T02:13:23.933Z,89.25
2018-02-05T02:14:23.997Z,88.85
2018-02-05T02:15:23.970Z,88.96
2018-02-05T02:16:23.945Z,89.13
2018-02-05T02:17:23.941Z,89.19
2018-02-05T02:18:23.952Z,89.14
2018-02-05T02:19:24.103Z,88.89
2018-02-05T02:20:24.034Z,88.94
2018-02-05T02:23:24.020Z,88.69
2018-02-05T02:24:23.997Z,88.4
2018-02-05T02:25:23.960Z,88.61
2018-02-05T02:26:23.967Z,88.58
2018-02-05T02:27:23.929Z,88.41
2018-02-05T02:28:23.947Z,88.48
2018-02-05T02:29:23.943Z,88.39
2018-02-05T02:30:23.994Z,88.39
2018-02-05T02:31:23.945Z,88.33
2018-02-05T02:32:23.927Z,88.18
2018-02-05T02:33:24.793Z,88.28
2018-02-05T02:34:24.744Z,88.4
2018-02-05T02:35:24.763Z,88.52
2018-02-05T02:36:24.736Z,88.19
2018-02-05T02:37:24.745Z,87.97
2018-02-05T02:38:24.750Z,87.91
2018-02-05T02:39:24.774Z,88.18
2018-02-05T02:40:24.840Z,88.18
2018-02-05T02:41:24.748Z,88.12
2018-02-05T02:42:24.777Z,88.18
2018-02-05T02:43:24.736Z,87.6
2018-02-05T02:44:24.752Z,88.07
2018-02-05T02:45:24.746Z,88.06
2018-02-05T02:46:24.801Z,87.83
2018-02-05T02:47:24.784Z,87.81
2018-02-05T02:48:24.747Z,88.18
2018-02-05T02:50:24.777Z,87.29
2018-02-05T02:51:24.735Z,87.48
2018-02-05T02:52:24.790Z,87.36
2018-02-05T02:53:24.760Z,87.34
2018-02-05T02:54:24.730Z,87.87
2018-02-05T02:55:24.749Z,87.75
2018-02-05T02:56:24.748Z,87.85
2018-02-05T02:57:24.807Z,87.58
2018-02-05T02:58:24.755Z,87.88
2018-02-05T02:59:24.737Z,87.9
2018-02-05T03:00:24.743Z,87.52
2018-02-05T03:01:24.741Z,87.78
2018-02-05T03:02:24.761Z,87.45
2018-02-05T03:03:24.701Z,87.58
2018-02-05T03:04:24.699Z,87.55
2018-02-05T03:05:24.721Z,87.59
2018-02-05T03:06:24.728Z,87.75
2018-02-05T03:07:24.734Z,87.9
2018-02-05T03:08:24.729Z,87.86
2018-02-05T03:09:24.725Z,87.82
2018-02-05T03:10:24.742Z,87.67
2018-02-05T03:11:24.734Z,87.59
2018-02-05T03:12:24.726Z,87.5
2018-02-05T03:13:24.722Z,87.56
2018-02-05T03:14:24.705Z,87.67
2018-02-05T03:15:24.740Z,87.8
2018-02-05T03:16:24.747Z,87.81
2018-02-05T03:17:24.724Z,87.93
2018-02-05T03:18:24.718Z,87.88
2018-02-05T03:19:24.747Z,87.83
2018-02-05T03:20:24.731Z,87.98
2018-02-05T03:21:24.722Z,87.57
2018-02-05T03:22:24.723Z,87.26
2018-02-05T03:23:24.728Z,87.39
2018-02-05T03:24:24.698Z,87.37
2018-02-05T03:25:24.714Z,87.51
2018-02-05T03:26:24.710Z,87.74
2018-02-05T03:27:24.729Z,87.79
2018-02-05T03:28:24.765Z,87.56
2018-02-05T03:29:24.720Z,87.65
2018-02-05T03:30:24.713Z,87.33
2018-02-05T03:31:24.795Z,87.66
2018-02-05T03:32:24.723Z,87.48
2018-02-05T03:33:24.771Z,87.69
2018-02-05T03:34:24.819Z,87.58
2018-02-05T03:35:24.779Z,87.13
2018-02-05T03:36:24.806Z,87.5
2018-02-05T03:37:24.796Z,87.02
2018-02-05T03:38:24.777Z,87.45
2018-02-05T03:39:24.757Z,87.57
2018-02-05T03:40:24.772Z,87.46
2018-02-05T03:41:24.769Z,87.6
2018-02-05T03:42:24.797Z,87.44
2018-02-05T03:43:24.778Z,87.5
2018-02-05T03:44:24.774Z,87.26
2018-02-05T03:45:24.816Z,87.29
2018-02-05T03:46:24.756Z,87.3
2018-02-05T03:47:24.764Z,87.58
2018-02-05T03:48:24.830Z,87.17
2018-02-05T03:49:24.794Z,87.43
2018-02-05T03:50:24.803Z,86.97
2018-02-05T03:51:24.788Z,87.08
2018-02-05T03:52:24.769Z,87.26
2018-02-05T03:53:24.753Z,86.88
2018-02-05T03:54:25.049Z,86.98
2018-02-05T03:55:24.803Z,87.05
2018-02-05T03:56:24.755Z,87.3
2018-02-05T03:57:24.828Z,87.37
2018-02-05T03:58:24.785Z,87.5
2018-02-05T03:59:24.813Z,87.41
2018-02-05T04:00:24.799Z,87.32
2018-02-05T04:01:24.742Z,87.17
2018-02-05T04:02:24.746Z,87.04
2018-02-05T04:03:24.807Z,87.36
2018-02-05T04:04:24.770Z,87.53
2018-02-05T04:05:24.761Z,87.69
2018-02-05T04:06:24.752Z,87.63
2018-02-05T04:07:24.736Z,87.3
2018-02-05T04:08:24.770Z,87.35
2018-02-05T04:09:24.795Z,87.73
2018-02-05T04:10:24.794Z,87.51
2018-02-05T04:11:24.816Z,87.65
2018-02-05T04:12:24.775Z,87.48
2018-02-05T04:13:24.781Z,87.59
2018-02-05T04:14:24.787Z,87.24
2018-02-05T04:15:24.774Z,87.5
2018-02-05T04:16:24.751Z,87.31
2018-02-05T04:17:24.910Z,87.21
2018-02-05T04:18:24.747Z,87.17
2018-02-05T04:19:24.771Z,87.25
2018-02-05T04:20:24.817Z,87.39
2018-02-05T04:21:24.778Z,87.18
2018-02-05T04:22:24.773Z,87.45
2018-02-05T04:23:24.746Z,87.5
2018-02-05T04:24:24.789Z,87.67
2018-02-05T04:25:24.775Z,87.48
2018-02-05T04:26:24.796Z,87.57
2018-02-05T04:27:24.792Z,87.03
2018-02-05T04:28:24.761Z,87.31
2018-02-05T04:29:24.745Z,87.24
2018-02-05T04:30:24.775Z,87.34
2018-02-05T04:31:24.764Z,87.4
2018-02-05T04:32:25.200Z,87.4
2018-02-05T04:33:24.815Z,87.42
2018-02-05T04:34:24.763Z,87.46
2018-02-05T04:35:24.765Z,87.34
2018-02-05T04:36:24.792Z,87.23
2018-02-05T04:37:24.823Z,87.54
2018-02-05T04:38:24.738Z,87.47
2018-02-05T04:39:24.810Z,87.24
2018-02-05T04:40:24.803Z,86.97
2018-02-05T04:41:24.759Z,87.06
2018-02-05T04:42:24.796Z,86.99
2018-02-05T04:43:24.779Z,87.13
2018-02-05T04:44:24.754Z,87.16
2018-02-05T04:45:24.758Z,87.09
2018-02-05T04:46:24.760Z,87.17
2018-02-05T04:47:24.759Z,87.24
2018-02-05T04:48:24.753Z,87.12
2018-02-05T04:49:24.756Z,87.43
2018-02-05T04:50:24.770Z,87.34
2018-02-05T04:51:24.765Z,87.26
2018-02-05T04:52:24.790Z,87.02
2018-02-05T04:53:24.753Z,87.16
2018-02-05T04:54:24.751Z,87.23
2018-02-05T04:55:24.741Z,87.17
2018-02-05T04:56:24.739Z,87.12
2018-02-05T04:57:24.756Z,87.24
2018-02-05T04:58:24.783Z,87.14
2018-02-05T04:59:24.921Z,87.1
2018-02-05T05:00:24.895Z,87.45
2018-02-05T05:01:24.762Z,87.47
2018-02-05T05:02:24.765Z,87.19
2018-02-05T05:03:24.765Z,87.11
2018-02-05T05:04:24.887Z,87.03
2018-02-05T05:05:23.951Z,87.24
2018-02-05T05:06:23.941Z,87.17
2018-02-05T05:07:23.950Z,87.17
2018-02-05T05:08:23.921Z,87.32
2018-02-05T05:09:23.977Z,87.12
2018-02-05T05:10:23.946Z,87.18
2018-02-05T05:11:24.259Z,87.03
2018-02-05T05:12:23.978Z,87
2018-02-05T05:13:23.933Z,86.67
2018-02-05T05:14:23.952Z,86.73
2018-02-05T05:15:23.961Z,86.88
2018-02-05T05:16:23.975Z,86.99
2018-02-05T05:17:23.940Z,86.76
2018-02-05T05:18:23.948Z,86.9
2018-02-05T05:19:23.951Z,86.93
2018-02-05T05:20:23.979Z,86.99
2018-02-05T05:21:23.955Z,86.77
2018-02-05T05:22:23.975Z,86.75
2018-02-05T05:23:23.959Z,86.82
2018-02-05T05:24:23.953Z,86.65
2018-02-05T05:25:23.948Z,86.85
2018-02-05T05:26:23.987Z,86.75
2018-02-05T05:27:24.008Z,86.82
2018-02-05T05:28:23.949Z,86.88
2018-02-05T05:29:23.939Z,86.55
2018-02-05T05:30:23.940Z,86.92
2018-02-05T05:31:23.927Z,86.87
2018-02-05T05:32:23.945Z,86.82
2018-02-05T05:33:23.961Z,86.75
2018-02-05T05:34:23.971Z,86.55
2018-02-05T05:35:23.971Z,86.93
2018-02-05T05:36:24.118Z,86.61
2018-02-05T05:37:24.124Z,86.91
2018-02-05T05:38:24.120Z,86.53
2018-02-05T05:39:24.066Z,86.68
2018-02-05T05:40:24.084Z,86.95
2018-02-05T05:41:24.074Z,87.12
2018-02-05T05:42:24.081Z,86.59
2018-02-05T05:43:24.175Z,86.89
2018-02-05T05:44:24.087Z,86.92
2018-02-05T05:45:24.070Z,86.88
2018-02-05T05:46:24.092Z,87
2018-02-05T05:47:24.098Z,87.07
2018-02-05T05:48:24.215Z,86.83
2018-02-05T05:49:24.105Z,86.8
2018-02-05T05:50:24.045Z,86.63
2018-02-05T05:51:24.068Z,86.96
2018-02-05T05:52:24.214Z,86.81
2018-02-05T05:53:24.106Z,86.64
2018-02-05T05:54:24.078Z,86.47
2018-02-05T05:55:24.047Z,86.06
2018-02-05T05:56:24.046Z,86.29
2018-02-05T05:57:24.107Z,86.7
2018-02-05T05:58:24.042Z,86.71
2018-02-05T05:59:24.063Z,86.26
2018-02-05T06:00:24.130Z,86.33
2018-02-05T06:01:24.075Z,86.44
2018-02-05T06:02:24.110Z,86.24
2018-02-05T06:03:24.090Z,86.29
2018-02-05T06:04:24.074Z,86.44
2018-02-05T06:05:24.060Z,86.21
2018-02-05T06:06:24.109Z,86.55
2018-02-05T06:07:23.947Z,86.56
2018-02-05T06:08:23.994Z,86.15
2018-02-05T06:09:23.978Z,86.18
2018-02-05T06:10:23.980Z,86.41
2018-02-05T06:11:24.052Z,86.3
2018-02-05T06:12:24.051Z,86.27
2018-02-05T06:13:23.957Z,86.58
2018-02-05T06:14:23.965Z,86.42
2018-02-05T06:15:23.961Z,86.29
2018-02-05T06:16:23.930Z,86.04
2018-02-05T06:17:24.168Z,86.35
2018-02-05T06:18:23.973Z,86.02
2018-02-05T06:19:23.960Z,86.18
2018-02-05T06:20:23.967Z,86.19
2018-02-05T06:21:23.967Z,86.08
2018-02-05T06:22:23.968Z,86
2018-02-05T06:23:23.955Z,85.6
2018-02-05T06:24:23.981Z,85.92
2018-02-05T06:25:23.984Z,86.01
2018-02-05T06:26:24.004Z,86.26
2018-02-05T06:27:23.981Z,86.52
2018-02-05T06:28:24.038Z,86.22
2018-02-05T06:29:23.971Z,86.08
2018-02-05T06:30:23.963Z,85.77
2018-02-05T06:31:23.959Z,86.23
2018-02-05T06:32:23.953Z,86.01
2018-02-05T06:33:23.955Z,86.36
2018-02-05T06:34:23.976Z,86.31
2018-02-05T06:35:23.957Z,86.53
2018-02-05T06:36:23.969Z,86.23
2018-02-05T06:37:24.119Z,86.19
2018-02-05T06:38:24.099Z,86.21
2018-02-05T06:39:24.102Z,86.09
2018-02-05T06:40:24.124Z,86.05
2018-02-05T06:41:24.112Z,86.35
2018-02-05T06:42:24.136Z,86.31
2018-02-05T06:43:24.134Z,86.5
2018-02-05T06:44:24.147Z,86.4
2018-02-05T06:45:24.113Z,86.17
2018-02-05T06:46:24.113Z,86.51
2018-02-05T06:50:24.157Z,86.62
2018-02-05T06:51:24.093Z,86.27
2018-02-05T06:52:24.204Z,86.42
2018-02-05T06:53:24.109Z,86.52
2018-02-05T06:54:24.115Z,86.82
2018-02-05T06:55:24.120Z,86.22
2018-02-05T06:56:24.123Z,86.28
2018-02-05T06:57:24.145Z,86.35
2018-02-05T06:58:24.262Z,85.75
2018-02-05T06:59:24.122Z,86.06
2018-02-05T07:00:24.131Z,85.97
2018-02-05T07:01:24.111Z,86.12
2018-02-05T07:02:24.130Z,85.63
2018-02-05T07:03:24.100Z,85.88
2018-02-05T07:04:24.138Z,85.97
2018-02-05T07:05:24.139Z,86.07
2018-02-05T07:06:24.120Z,85.5
2018-02-05T07:07:24.200Z,85.81
2018-02-05T07:08:24.072Z,86.08
2018-02-05T07:09:24.164Z,85.99
2018-02-05T07:10:24.074Z,86.04
2018-02-05T07:11:24.067Z,86.06
2018-02-05T07:12:24.059Z,86.25
2018-02-05T07:13:24.041Z,86.21
2018-02-05T07:14:24.052Z,85.32
2018-02-05T07:15:24.072Z,85.51
2018-02-05T07:16:24.144Z,85.71
2018-02-05T07:17:24.055Z,85.99
2018-02-05T07:18:24.073Z,85.77
2018-02-05T07:19:24.077Z,85.65
2018-02-05T07:20:24.075Z,85.38
2018-02-05T07:21:24.069Z,85.79
2018-02-05T07:22:24.087Z,86.1
2018-02-05T07:23:24.063Z,85.77
2018-02-05T07:24:24.064Z,85.3
2018-02-05T07:25:24.060Z,85.91
2018-02-05T07:26:24.175Z,85.59
2018-02-05T07:27:24.076Z,85.19
2018-02-05T07:28:24.059Z,85.46
2018-02-05T07:29:24.066Z,85.47
2018-02-05T07:30:24.049Z,85.65
2018-02-05T07:31:24.128Z,85.76
2018-02-05T07:32:24.060Z,85.67
2018-02-05T07:33:24.084Z,85.72
2018-02-05T07:34:24.053Z,84.79
2018-02-05T07:35:24.059Z,85.3
2018-02-05T07:36:24.065Z,85.34
2018-02-05T07:37:24.079Z,85.44
2018-02-05T07:38:24.115Z,85.48
2018-02-05T07:39:24.114Z,85.57
2018-02-05T07:40:24.117Z,85.11
2018-02-05T07:41:24.102Z,84.9
2018-02-05T07:42:24.124Z,85.19
2018-02-05T07:43:24.146Z,85.12
2018-02-05T07:44:24.184Z,85.03
2018-02-05T07:45:24.115Z,84.72
2018-02-05T07:46:24.126Z,84.75
2018-02-05T07:47:24.323Z,84.67
2018-02-05T07:48:24.237Z,85.05
2018-02-05T07:49:24.204Z,84.95
2018-02-05T07:50:24.108Z,84.87
2018-02-05T07:51:24.182Z,84.72
2018-02-05T07:52:24.121Z,84.93
2018-02-05T07:53:24.125Z,84.93
2018-02-05T07:54:24.142Z,84.64
2018-02-05T07:55:24.246Z,84.28
2018-02-05T07:56:24.100Z,84.37
2018-02-05T07:57:24.164Z,83.74
2018-02-05T07:58:24.113Z,83.87
2018-02-05T07:59:24.131Z,84.19
2018-02-05T08:00:24.209Z,84.43
2018-02-05T08:01:24.116Z,84.34
2018-02-05T08:02:24.115Z,84.07
2018-02-05T08:03:24.126Z,84.08
2018-02-05T08:04:24.143Z,84.06
2018-02-05T08:05:24.152Z,84.29
2018-02-05T08:06:24.135Z,84.13
2018-02-05T08:07:24.102Z,83.87
2018-02-05T08:08:24.125Z,84.32
2018-02-05T08:09:24.373Z,84.11
2018-02-05T08:10:24.609Z,84.01
2018-02-05T08:11:24.385Z,83.75
2018-02-05T08:12:24.362Z,84.19
2018-02-05T08:13:24.372Z,83.91
2018-02-05T08:14:24.467Z,84.01
2018-02-05T08:15:24.414Z,83.78
2018-02-05T08:16:24.364Z,83.39
2018-02-05T08:17:24.414Z,83.7
2018-02-05T08:18:24.389Z,83.7
2018-02-05T08:19:24.378Z,84.01
2018-02-05T08:20:24.355Z,84.14
2018-02-05T08:21:24.384Z,83.67
2018-02-05T08:22:24.390Z,83.67
2018-02-05T08:23:24.371Z,83.79
2018-02-05T08:24:24.409Z,83.58
2018-02-05T08:25:24.379Z,83.28
2018-02-05T08:26:24.374Z,82.94
2018-02-05T08:27:24.414Z,83.08
2018-02-05T08:28:24.366Z,83.16
2018-02-05T08:29:24.360Z,83.48
2018-02-05T08:30:24.423Z,82.64
2018-02-05T08:31:24.421Z,83.23
2018-02-05T08:32:24.357Z,83.03
2018-02-05T08:33:24.386Z,82.84
2018-02-05T08:34:24.416Z,82.77
2018-02-05T08:35:24.385Z,82.86
2018-02-05T08:36:24.380Z,83.35
2018-02-05T08:37:24.370Z,83.11
2018-02-05T08:38:24.423Z,83.06
2018-02-05T08:39:24.404Z,82.82
2018-02-05T08:40:24.308Z,82.98
2018-02-05T08:41:24.303Z,83.09
2018-02-05T08:42:24.264Z,83.03
2018-02-05T08:43:24.311Z,82.69
2018-02-05T08:44:24.306Z,82.94
2018-02-05T08:45:24.322Z,82.41
2018-02-05T08:46:24.314Z,81.97
2018-02-05T08:47:24.299Z,81.82
2018-02-05T08:48:24.288Z,82.44
2018-02-05T08:49:24.269Z,81.98
2018-02-05T08:50:24.356Z,82.35
2018-02-05T08:51:24.327Z,82.41
2018-02-05T08:52:24.266Z,82.39
2018-02-05T08:53:24.300Z,82.26
2018-02-05T08:54:24.294Z,81.94
2018-02-05T08:55:24.341Z,82.42
2018-02-05T08:56:24.462Z,82.42
2018-02-05T08:57:24.314Z,81.91
2018-02-05T08:58:24.341Z,82.3
2018-02-05T08:59:24.300Z,82.08
2018-02-05T09:00:24.325Z,82.3
2018-02-05T09:01:24.292Z,81.9
2018-02-05T09:02:24.316Z,82.03
2018-02-05T09:03:24.292Z,82.36
2018-02-05T09:04:24.401Z,82.19
2018-02-05T09:05:24.312Z,81.81
2018-02-05T09:06:24.419Z,81.29
2018-02-05T09:07:24.330Z,81.01
2018-02-05T09:08:24.302Z,81.25
2018-02-05T09:09:24.809Z,81.55
2018-02-05T09:10:24.752Z,81.25
2018-02-05T09:11:24.705Z,81.16
2018-02-05T09:12:24.722Z,81.38
2018-02-05T09:13:24.729Z,81.6
2018-02-05T09:14:24.805Z,81.44
2018-02-05T09:15:24.726Z,81.87
2018-02-05T09:16:24.785Z,81.34
2018-02-05T09:17:24.773Z,81.35
2018-02-05T09:18:24.734Z,80.79
2018-02-05T09:19:24.762Z,80.98
2018-02-05T09:20:24.778Z,80.83
2018-02-05T09:21:24.717Z,80.8
2018-02-05T09:22:24.727Z,80.93
2018-02-05T09:23:24.771Z,80.94
2018-02-05T09:24:25.038Z,80.67
2018-02-05T09:25:24.723Z,80.1
2018-02-05T09:26:24.708Z,80.75
2018-02-05T09:27:24.755Z,80.22
2018-02-05T09:28:24.742Z,80.03
2018-02-05T09:29:24.793Z,79.96
2018-02-05T09:30:24.718Z,79.39
2018-02-05T09:31:25.283Z,79.89
2018-02-05T09:32:24.743Z,79.36
2018-02-05T09:33:24.748Z,79.31
2018-02-05T09:34:24.732Z,79.53
2018-02-05T09:35:24.758Z,78.61
2018-02-05T09:36:24.753Z,78.94
2018-02-05T09:37:24.738Z,78.69
2018-02-05T09:38:24.719Z,78.93
2018-02-05T09:39:24.728Z,79.23
2018-02-05T09:40:24.740Z,78.69
2018-02-05T09:41:24.638Z,79.53
2018-02-05T09:42:24.579Z,79.45
2018-02-05T09:43:24.576Z,78.79
2018-02-05T09:44:24.637Z,78.56
2018-02-05T09:45:24.567Z,78.86
2018-02-05T09:46:24.584Z,78.37
2018-02-05T09:47:24.607Z,78.59
2018-02-05T09:48:24.613Z,77.58
2018-02-05T09:49:24.577Z,77.82
2018-02-05T09:50:24.561Z,76.61
2018-02-05T09:51:24.599Z,77.11
2018-02-05T09:52:24.580Z,77.25
2018-02-05T09:53:24.591Z,77.68
2018-02-05T09:54:24.606Z,77.57
2018-02-05T09:55:24.615Z,77.26
2018-02-05T09:56:24.587Z,77.22
2018-02-05T09:57:24.603Z,77.63
2018-02-05T10:00:24.614Z,77.05
2018-02-05T10:01:24.591Z,77.06
2018-02-05T10:02:24.585Z,76.12
2018-02-05T10:03:26.340Z,76.3
2018-02-05T10:04:24.573Z,76.13
2018-02-05T10:05:24.555Z,74.67
2018-02-05T10:06:24.575Z,74.82
2018-02-05T10:07:24.569Z,75.76
2018-02-05T10:08:24.555Z,75.74
2018-02-05T10:09:24.665Z,76.01
2018-02-05T10:10:24.570Z,75.01
2018-02-05T10:11:24.907Z,75.78
2018-02-05T10:12:24.946Z,76.2
2018-02-05T10:13:24.796Z,74.57
2018-02-05T10:14:24.823Z,75.59
2018-02-05T10:15:24.823Z,75.55
2018-02-05T10:16:24.835Z,75.79
2018-02-05T10:17:24.804Z,75.34
2018-02-05T10:18:24.885Z,74.55
2018-02-05T10:19:24.840Z,74.23
2018-02-05T10:20:24.843Z,74.89
2018-02-05T10:21:24.811Z,75.4
2018-02-05T10:22:24.819Z,75.34
2018-02-05T10:23:25.023Z,74.63
2018-02-05T10:24:24.801Z,74.37
2018-02-05T10:25:24.812Z,73.86
2018-02-05T10:26:24.804Z,73.9
2018-02-05T10:27:24.820Z,75.04
2018-02-05T10:28:24.896Z,74.85
2018-02-05T10:29:24.821Z,74.43
2018-02-05T10:30:24.855Z,73.1
2018-02-05T10:31:24.821Z,72.66
2018-02-05T10:32:24.835Z,73.31
2018-02-05T10:33:24.827Z,73.28
2018-02-05T10:34:24.817Z,72.66
2018-02-05T10:35:24.827Z,72.18
2018-02-05T10:36:24.873Z,72.83
2018-02-05T10:37:24.842Z,73.25
2018-02-05T10:38:24.834Z,72.3
2018-02-05T10:39:25.058Z,72.9
2018-02-05T10:40:24.800Z,72.7
2018-02-05T10:41:24.065Z,73.51
2018-02-05T10:42:24.048Z,72.22
2018-02-05T10:43:23.955Z,72.75
2018-02-05T10:44:24.039Z,72.62
2018-02-05T10:45:24.002Z,72.94
2018-02-05T10:46:23.951Z,72.1
2018-02-05T10:47:23.974Z,72.01
2018-02-05T10:48:23.935Z,72.32
2018-02-05T10:49:23.973Z,72.51
2018-02-05T10:50:24.011Z,72.17
2018-02-05T10:51:23.947Z,71.7
2018-02-05T10:52:23.961Z,71.48
2018-02-05T10:53:23.958Z,71.94
2018-02-05T10:54:23.953Z,71.24
2018-02-05T10:55:23.953Z,71.12
2018-02-05T10:56:23.976Z,71.85
2018-02-05T10:57:23.938Z,71.68
2018-02-05T10:58:23.978Z,71.23
2018-02-05T10:59:23.953Z,71.37
2018-02-05T11:00:23.966Z,71.83
2018-02-05T11:01:24.010Z,71.68
2018-02-05T11:02:23.970Z,72.12
2018-02-05T11:03:24.504Z,70.35
2018-02-05T11:04:24.004Z,70.27
2018-02-05T11:05:24.090Z,70.28
2018-02-05T11:06:23.941Z,70.69
2018-02-05T11:07:23.949Z,70.09
2018-02-05T11:08:23.979Z,70.49
2018-02-05T11:09:23.960Z,70.23
2018-02-05T11:10:23.982Z,70.87
2018-02-05T11:11:23.990Z,70.74
2018-02-05T11:12:23.883Z,69.83
2018-02-05T11:13:23.938Z,70.45
2018-02-05T11:14:24.020Z,70.59
2018-02-05T11:15:23.902Z,69.42
2018-02-05T11:16:23.908Z,68.92
2018-02-05T11:17:23.904Z,69.07
2018-02-05T11:18:23.912Z,69.47
2018-02-05T11:19:23.931Z,70.54
2018-02-05T11:20:23.892Z,70.58
2018-02-05T11:21:23.896Z,69.92
2018-02-05T11:22:23.892Z,68.87
2018-02-05T11:23:24.137Z,68.41
2018-02-05T11:24:23.892Z,69.52
2018-02-05T11:25:23.949Z,68.58
2018-02-05T11:26:23.912Z,69.05
2018-02-05T11:27:23.894Z,69.25
2018-02-05T11:28:24.003Z,69.14
2018-02-05T11:29:23.967Z,68.92
2018-02-05T11:30:23.952Z,68.89
2018-02-05T11:31:23.899Z,68.32
2018-02-05T11:32:23.925Z,68.33
2018-02-05T11:33:23.905Z,69.11
2018-02-05T11:34:23.983Z,69.24
2018-02-05T11:35:23.892Z,69.03
2018-02-05T11:36:23.958Z,68.23
2018-02-05T11:37:24.160Z,68.22
2018-02-05T11:38:23.869Z,68.15
2018-02-05T11:39:24.374Z,69.06
2018-02-05T11:40:23.889Z,67.69
2018-02-05T11:41:23.877Z,67.59
2018-02-05T11:42:23.910Z,67.12
2018-02-05T11:43:23.884Z,68.67
2018-02-05T11:44:23.923Z,68.37
2018-02-05T11:45:23.885Z,68.28
2018-02-05T11:46:23.885Z,66.84
2018-02-05T11:47:25.053Z,67.69
2018-02-05T11:48:24.988Z,67.58
2018-02-05T11:49:24.878Z,67.36
2018-02-05T11:50:24.864Z,67.4
2018-02-05T11:51:24.880Z,67.47
2018-02-05T11:52:24.996Z,67.16
2018-02-05T11:53:24.874Z,65.69
2018-02-05T11:54:24.903Z,66.06
2018-02-05T11:55:24.999Z,66.11
2018-02-05T11:56:25.135Z,64.96
2018-02-05T11:57:25.354Z,66.06
2018-02-05T11:58:25.319Z,64.9
2018-02-05T11:59:24.945Z,66.32
2018-02-05T12:00:25.403Z,66.13
2018-02-05T12:01:25.658Z,65.39
2018-02-05T12:02:24.936Z,66.41
2018-02-05T12:03:25.168Z,65.51
2018-02-05T12:04:24.856Z,65.33
2018-02-05T12:05:24.943Z,64.59
2018-02-05T12:06:25.052Z,65.03
2018-02-05T12:07:24.871Z,66.21
2018-02-05T12:08:24.750Z,65.23
2018-02-05T12:09:25.412Z,64.86
2018-02-05T12:10:24.990Z,65
2018-02-05T12:11:25.342Z,64.92
2018-02-05T12:12:24.919Z,64.4
2018-02-05T12:13:24.752Z,65.43
2018-02-05T12:14:24.679Z,64.65
2018-02-05T12:15:24.673Z,64.83
2018-02-05T12:16:24.706Z,65.69
2018-02-05T12:17:24.635Z,64.99
2018-02-05T12:18:24.724Z,64.9
2018-02-05T12:19:24.724Z,64.6
2018-02-05T12:20:24.801Z,64.77
2018-02-05T12:21:25.048Z,64.04
2018-02-05T12:22:25.072Z,65.41
2018-02-05T12:23:24.944Z,65.35
2018-02-05T12:24:25.074Z,62.97
2018-02-05T12:25:24.880Z,63.21
2018-02-05T12:26:25.126Z,63.56
2018-02-05T12:27:25.325Z,63.84
2018-02-05T12:28:25.288Z,63.14
2018-02-05T12:29:25.252Z,63.42
2018-02-05T12:30:25.383Z,63.78
2018-02-05T12:31:24.709Z,64.51
2018-02-05T12:32:24.716Z,62.59
2018-02-05T12:33:24.841Z,63.31
2018-02-05T12:34:24.717Z,62.69
2018-02-05T12:35:24.831Z,62.82
2018-02-05T12:36:25.080Z,63.53
2018-02-05T12:37:24.854Z,63.53
2018-02-05T12:38:24.962Z,63.07
2018-02-05T12:39:25.003Z,63.23
2018-02-05T12:40:25.119Z,64.09
2018-02-05T12:41:25.414Z,63.16
2018-02-05T12:42:25.196Z,63.97
2018-02-05T12:43:25.129Z,63.26
2018-02-05T12:44:25.207Z,62.85
2018-02-05T12:45:25.472Z,63.73
2018-02-05T12:46:24.235Z,62.87
2018-02-05T12:47:24.703Z,61.14
2018-02-05T12:48:25.593Z,62.87
2018-02-05T12:49:25.493Z,62.44
2018-02-05T12:50:25.602Z,63.77
2018-02-05T12:51:25.781Z,62.34
2018-02-05T12:52:25.692Z,62.02
2018-02-05T12:53:25.500Z,62.56
2018-02-05T12:54:24.765Z,62.17
2018-02-05T12:55:24.788Z,62.12
2018-02-05T12:56:24.869Z,62.87
2018-02-05T12:57:24.673Z,63.01
2018-02-05T12:58:25.611Z,64.2
2018-02-05T12:59:25.503Z,63.77
2018-02-05T13:00:25.336Z,63.87
2018-02-05T13:01:25.019Z,62.37
2018-02-05T13:02:25.353Z,62.5
2018-02-05T13:03:25.563Z,62.41
2018-02-05T13:04:25.666Z,62.4
2018-02-05T13:05:25.445Z,62.64